createdAt,value
2018-04-19T00:04:17.735Z,17.83
2018-04-19T00:10:22.113Z,17.90
2018-04-19T00:16:26.488Z,18.93
2018-04-19T00:22:30.889Z,18.63
2018-04-19T00:28:35.265Z,18.20
2018-04-19T00:34:39.818Z,18.97
2018-04-19T00:40:44.540Z,20.97
2018-04-19T00:46:48.999Z,20.17
2018-04-19T00:53:09.417Z,20.63
2018-04-19T00:59:14.000Z,25.70
2018-04-19T01:05:18.377Z,25.10
2018-04-19T01:11:22.778Z,27.17
2018-04-19T01:17:27.156Z,24.20
2018-04-19T01:23:31.649Z,24.13
2018-04-19T01:29:36.014Z,22.77
2018-04-19T01:35:58.188Z,22.70
2018-04-19T01:42:02.613Z,23.33
2018-04-19T01:48:06.999Z,25.30
2018-04-19T01:54:13.087Z,24.07
2018-04-19T02:00:18.273Z,25.90
2018-04-19T02:06:22.650Z,24.00
2018-04-19T02:12:27.096Z,23.50
2018-04-19T02:18:31.476Z,24.70
2018-04-19T02:24:35.849Z,25.63
2018-04-19T02:30:40.303Z,25.20
2018-04-19T02:36:45.550Z,25.03
2018-04-19T02:42:50.157Z,25.67
2018-04-19T02:48:54.573Z,26.37
2018-04-19T02:54:58.959Z,26.70
2018-04-19T03:01:03.344Z,25.70
2018-04-19T03:07:07.765Z,25.80
2018-04-19T03:13:12.383Z,27.30
2018-04-19T03:19:16.746Z,26.47
2018-04-19T03:25:21.150Z,27.23
2018-04-19T03:31:25.542Z,29.07
2018-04-19T03:37:30.075Z,27.77
2018-04-19T03:43:34.439Z,31.73
2018-04-19T03:49:39.858Z,30.30
2018-04-19T03:55:44.454Z,27.33
2018-04-19T04:01:48.929Z,27.97
2018-04-19T04:07:53.396Z,29.30
2018-04-19T04:13:57.796Z,27.53
2018-04-19T04:20:19.809Z,29.20
2018-04-19T04:26:24.210Z,30.07
2018-04-19T04:32:29.523Z,28.30
2018-04-19T04:38:33.899Z,27.70
2018-04-19T04:44:38.302Z,28.77
2018-04-19T04:50:42.936Z,28.33
2018-04-19T04:56:47.338Z,26.17
2018-04-19T05:02:52.544Z,25.37
2018-04-19T05:08:56.901Z,25.00
2018-04-19T05:15:01.394Z,25.37
2018-04-19T05:21:05.885Z,25.97
2018-04-19T05:27:10.261Z,25.30
2018-04-19T05:33:15.523Z,27.00
2018-04-19T05:39:20.332Z,27.33
2018-04-19T05:45:24.804Z,28.47
2018-04-19T05:51:29.195Z,29.00
2018-04-19T05:57:33.588Z,24.83
2018-04-19T06:03:37.974Z,27.17
2018-04-19T06:09:42.397Z,24.90
2018-04-19T06:15:46.766Z,26.10
2018-04-19T06:21:51.181Z,24.67
2018-04-19T06:27:55.564Z,26.07
2018-04-19T06:33:59.951Z,24.37
2018-04-19T06:40:04.364Z,24.20
2018-04-19T06:46:08.725Z,25.00
2018-04-19T06:52:13.304Z,22.73
2018-04-19T06:58:18.681Z,23.50
2018-04-19T07:04:24.631Z,23.80
2018-04-19T07:10:29.111Z,24.73
2018-04-19T07:16:33.507Z,26.80
2018-04-19T07:22:37.891Z,25.93
2018-04-19T07:28:42.483Z,25.10
2018-04-19T07:34:46.867Z,25.90
2018-04-19T07:40:51.294Z,25.97
2018-04-19T07:46:55.796Z,24.33
2018-04-19T07:53:00.191Z,23.83
2018-04-19T07:59:04.590Z,22.80
2018-04-19T08:05:09.733Z,20.57
2018-04-19T08:11:14.614Z,19.40
2018-04-19T08:17:18.987Z,21.37
2018-04-19T08:23:23.367Z,20.17
2018-04-19T08:29:27.830Z,20.27
2018-04-19T08:35:32.194Z,21.43
2018-04-19T08:41:37.761Z,19.40
2018-04-19T08:47:42.193Z,20.47
2018-04-19T08:53:46.582Z,20.77
2018-04-19T08:59:50.975Z,21.07
2018-04-19T09:05:55.375Z,21.00
2018-04-19T09:12:00.503Z,20.20
2018-04-19T09:18:04.872Z,19.00
2018-04-19T09:24:09.369Z,17.77
2018-04-19T09:30:13.948Z,15.40
2018-04-19T09:36:18.351Z,14.43
2018-04-19T09:42:22.726Z,13.93
2018-04-19T09:48:27.914Z,13.73
2018-04-19T09:54:32.326Z,12.03
2018-04-19T10:00:43.045Z,13.17
2018-04-19T10:06:48.181Z,12.73
2018-04-19T10:12:52.555Z,12.17
2018-04-19T10:18:57.028Z,11.83
2018-04-19T10:25:01.390Z,10.33
2018-04-19T10:31:05.777Z,11.77
2018-04-19T10:37:10.158Z,11.07
2018-04-19T10:43:14.563Z,8.50
2018-04-19T10:49:18.996Z,10.53
2018-04-19T10:55:23.373Z,10.80
2018-04-19T11:01:27.847Z,9.77
2018-04-19T11:07:32.243Z,10.77
2018-04-19T11:13:36.708Z,10.10
2018-04-19T11:19:41.908Z,9.30
2018-04-19T11:25:46.356Z,8.70
2018-04-19T11:31:51.512Z,10.00
2018-04-19T11:37:55.940Z,9.30
2018-04-19T11:44:00.303Z,7.67
2018-04-19T11:50:04.727Z,7.83
2018-04-19T11:56:09.160Z,9.80
2018-04-19T12:02:14.375Z,8.07
2018-04-19T12:08:18.828Z,7.83
2018-04-19T12:14:23.201Z,9.03
2018-04-19T12:20:27.588Z,9.17
2018-04-19T12:26:31.960Z,7.40
2018-04-19T12:32:36.336Z,8.77
2018-04-19T12:38:40.786Z,7.30
2018-04-19T12:44:45.191Z,6.57
2018-04-19T12:50:49.707Z,6.87
2018-04-19T12:56:54.136Z,6.33
2018-04-19T13:02:59.429Z,6.40
2018-04-19T13:09:04.719Z,5.10
2018-04-19T13:15:10.952Z,5.50
2018-04-19T13:21:15.433Z,4.43
2018-04-19T13:27:19.802Z,5.00
2018-04-19T13:33:24.239Z,4.50
2018-04-19T13:39:28.654Z,3.50
2018-04-19T13:45:33.039Z,4.13
2018-04-19T13:51:37.421Z,4.17
2018-04-19T13:57:42.027Z,3.43
2018-04-19T14:03:46.769Z,2.77
2018-04-19T14:09:51.145Z,2.70
2018-04-19T14:15:55.503Z,2.40
2018-04-19T14:22:00.646Z,2.60
2018-04-19T14:28:05.049Z,2.80
2018-04-19T14:34:09.481Z,2.40
2018-04-19T14:40:14.823Z,2.20
2018-04-19T14:46:19.182Z,2.90
2018-04-19T14:52:23.623Z,2.00
2018-04-19T14:58:27.999Z,2.13
2018-04-19T15:04:32.375Z,2.37
2018-04-19T15:10:36.751Z,3.20
2018-04-19T15:16:41.160Z,2.67
2018-04-19T15:22:45.657Z,2.50
2018-04-19T15:28:50.033Z,3.43
2018-04-19T15:34:54.463Z,3.30
2018-04-19T15:40:58.842Z,3.57
2018-04-19T15:47:03.304Z,3.70
2018-04-19T15:53:07.684Z,4.10
2018-04-19T15:59:12.111Z,3.87
2018-04-19T16:05:16.498Z,3.80
2018-04-19T16:11:21.700Z,3.63
2018-04-19T16:17:26.032Z,3.70
2018-04-19T16:23:30.407Z,4.00
2018-04-19T16:29:34.771Z,3.90
2018-04-19T16:35:39.141Z,3.10
2018-04-19T16:41:43.841Z,3.20
2018-04-19T16:47:48.269Z,3.20
2018-04-19T16:53:52.720Z,3.10
2018-04-19T16:59:57.886Z,3.10
2018-04-19T17:06:02.264Z,2.90
2018-04-19T17:12:06.664Z,2.80
2018-04-19T17:18:11.903Z,4.60
2018-04-19T17:24:16.321Z,3.77
2018-04-19T17:30:20.762Z,4.50
2018-04-19T17:36:25.131Z,9.97
2018-04-19T17:42:29.514Z,6.97
2018-04-19T17:48:33.894Z,9.07
2018-04-19T17:54:38.265Z,10.03
2018-04-19T18:00:42.945Z,9.50
2018-04-19T18:06:47.339Z,10.07
2018-04-19T18:12:51.706Z,8.53
2018-04-19T18:18:56.078Z,9.40
2018-04-19T18:25:00.475Z,7.43
2018-04-19T18:31:04.866Z,9.70
2018-04-19T18:37:10.024Z,9.73
2018-04-19T18:43:14.451Z,10.63
2018-04-19T18:49:19.609Z,10.13
2018-04-19T18:55:23.982Z,11.80
2018-04-19T19:01:28.368Z,12.77
2018-04-19T19:07:33.515Z,13.37
2018-04-19T19:13:37.989Z,13.60
2018-04-19T19:20:00.173Z,13.60
2018-04-19T19:26:04.559Z,12.63
2018-04-19T19:32:08.931Z,14.50
2018-04-19T19:38:13.369Z,11.80
2018-04-19T19:44:18.598Z,11.30
2018-04-19T19:50:22.980Z,11.83
2018-04-19T19:56:27.371Z,10.30
2018-04-19T20:02:31.789Z,11.57
2018-04-19T20:08:36.948Z,12.43
2018-04-19T20:14:41.339Z,11.70
2018-04-19T20:20:45.751Z,12.67
2018-04-19T20:26:51.007Z,14.27
2018-04-19T20:32:55.388Z,13.70
2018-04-19T20:38:59.819Z,13.30
2018-04-19T20:45:04.187Z,15.30
2018-04-19T20:51:08.582Z,13.40
2018-04-19T20:57:13.040Z,14.37
2018-04-19T21:03:17.506Z,13.53
2018-04-19T21:09:21.915Z,15.10
2018-04-19T21:15:26.284Z,12.77
2018-04-19T21:21:30.676Z,13.13
2018-04-19T21:27:35.115Z,13.00
2018-04-19T21:33:39.550Z,12.47
2018-04-19T21:39:44.032Z,13.70
2018-04-19T21:45:49.198Z,13.47
2018-04-19T21:51:53.626Z,11.83
2018-04-19T21:57:57.999Z,13.40
2018-04-19T22:04:03.206Z,12.97
2018-04-19T22:10:07.584Z,14.13
2018-04-19T22:16:12.386Z,14.97
2018-04-19T22:22:16.765Z,18.20
2018-04-19T22:28:21.143Z,15.80
2018-04-19T22:34:25.532Z,15.50
2018-04-19T22:40:29.960Z,15.20
2018-04-19T22:46:34.402Z,16.40
2018-04-19T22:52:38.863Z,15.30
2018-04-19T22:58:43.354Z,16.37
2018-04-19T23:04:47.780Z,19.10
2018-04-19T23:10:52.152Z,16.87
2018-04-19T23:16:56.625Z,17.47
2018-04-19T23:23:01.101Z,16.30
2018-04-19T23:29:05.465Z,17.47
2018-04-19T23:35:09.911Z,16.07
2018-04-19T23:41:14.435Z,16.00
2018-04-19T23:47:18.979Z,16.13
2018-04-19T23:53:23.389Z,15.83
2018-04-19T23:59:27.789Z,16.00
